createdAt,value
2023-01-09T00:02:32.766Z,989.99
2023-01-09T00:05:40.294Z,989.87
2023-01-09T00:08:47.964Z,989.81
2023-01-09T00:11:56.238Z,989.75
2023-01-09T00:15:03.579Z,989.63
2023-01-09T00:18:11.741Z,989.65
2023-01-09T00:21:19.223Z,989.63
2023-01-09T00:24:27.465Z,989.70
2023-01-09T00:27:35.273Z,989.63
2023-01-09T00:30:43.109Z,989.70
2023-01-09T00:33:50.637Z,989.53
2023-01-09T00:36:58.149Z,989.52
2023-01-09T00:40:06.003Z,989.47
2023-01-09T00:43:14.050Z,989.35
2023-01-09T00:46:21.332Z,989.33
2023-01-09T00:49:29.564Z,989.37
2023-01-09T00:52:37.305Z,989.28
2023-01-09T00:55:45.084Z,989.24
2023-01-09T00:58:52.718Z,989.20
2023-01-09T01:02:00.698Z,989.08
2023-01-09T01:05:08.623Z,989.21
2023-01-09T01:08:16.635Z,989.16
2023-01-09T01:11:23.937Z,989.09
2023-01-09T01:14:32.081Z,989.08
2023-01-09T01:17:39.537Z,989.16
2023-01-09T01:20:47.343Z,989.15
2023-01-09T01:23:54.989Z,989.11
2023-01-09T01:27:02.688Z,989.11
2023-01-09T01:30:10.181Z,989.15
2023-01-09T01:33:12.970Z,989.12
2023-01-09T01:36:20.599Z,988.95
2023-01-09T01:39:27.767Z,989.14
2023-01-09T01:42:34.985Z,989.10
2023-01-09T01:45:42.622Z,989.08
2023-01-09T01:48:49.544Z,989.04
2023-01-09T01:51:57.284Z,989.08
2023-01-09T01:55:04.523Z,989.04
2023-01-09T01:58:11.815Z,989.03
2023-01-09T02:01:19.537Z,989.05
2023-01-09T02:04:26.719Z,989.01
2023-01-09T02:07:34.019Z,988.98
2023-01-09T02:10:40.901Z,988.90
2023-01-09T02:13:48.294Z,988.84
2023-01-09T02:16:55.855Z,988.79
2023-01-09T02:20:02.834Z,988.81
2023-01-09T02:23:10.377Z,988.84
2023-01-09T02:26:18.346Z,988.81
2023-01-09T02:29:25.510Z,988.94
2023-01-09T02:32:32.762Z,988.83
2023-01-09T02:35:40.089Z,988.95
2023-01-09T02:38:46.866Z,988.86
2023-01-09T02:41:54.376Z,988.82
2023-01-09T02:45:01.844Z,988.67
2023-01-09T02:48:08.658Z,988.69
2023-01-09T02:51:15.905Z,988.59
2023-01-09T02:54:23.077Z,988.57
2023-01-09T02:57:30.045Z,988.56
2023-01-09T03:00:37.318Z,988.47
2023-01-09T03:03:44.656Z,988.46
2023-01-09T03:06:51.695Z,988.50
2023-01-09T03:09:58.852Z,988.54
2023-01-09T03:13:06.081Z,988.46
2023-01-09T03:16:13.701Z,988.43
2023-01-09T03:19:20.725Z,988.40
2023-01-09T03:22:27.737Z,988.37
2023-01-09T03:25:35.075Z,988.31
2023-01-09T03:28:41.784Z,988.20
2023-01-09T03:31:49.083Z,988.30
2023-01-09T03:34:56.454Z,988.16
2023-01-09T03:38:03.300Z,988.10
2023-01-09T03:41:10.851Z,988.06
2023-01-09T03:44:18.177Z,988.05
2023-01-09T03:47:25.520Z,988.02
2023-01-09T03:50:32.907Z,987.93
2023-01-09T03:53:40.064Z,987.94
2023-01-09T03:56:46.894Z,987.92
2023-01-09T03:59:54.263Z,987.82
2023-01-09T04:03:01.349Z,987.78
2023-01-09T04:06:08.574Z,987.74
2023-01-09T04:09:15.584Z,987.78
2023-01-09T04:12:22.206Z,987.77
2023-01-09T04:15:29.234Z,987.82
2023-01-09T04:18:35.914Z,987.76
2023-01-09T04:21:43.354Z,987.78
2023-01-09T04:24:50.454Z,987.73
2023-01-09T04:27:57.223Z,987.62
2023-01-09T04:31:04.380Z,987.63
2023-01-09T04:34:11.404Z,987.56
2023-01-09T04:37:18.199Z,987.60
2023-01-09T04:40:25.564Z,987.56
2023-01-09T04:43:32.324Z,987.49
2023-01-09T04:46:39.891Z,987.56
2023-01-09T04:49:47.413Z,987.55
2023-01-09T04:52:54.251Z,987.50
2023-01-09T04:56:01.521Z,987.51
2023-01-09T04:59:08.899Z,987.51
2023-01-09T05:02:15.704Z,987.49
2023-01-09T05:05:23.312Z,987.52
2023-01-09T05:08:30.452Z,987.60
2023-01-09T05:11:37.712Z,987.58
2023-01-09T05:14:44.745Z,987.58
2023-01-09T05:17:51.824Z,987.57
2023-01-09T05:20:59.158Z,987.66
2023-01-09T05:24:06.625Z,987.65
2023-01-09T05:27:13.735Z,987.70
2023-01-09T05:30:20.906Z,987.72
2023-01-09T05:33:27.969Z,987.81
2023-01-09T05:36:35.373Z,987.87
2023-01-09T05:39:42.657Z,987.90
2023-01-09T05:42:49.847Z,987.91
2023-01-09T05:45:57.468Z,987.98
2023-01-09T05:49:04.510Z,988.10
2023-01-09T05:52:11.587Z,988.12
2023-01-09T05:55:18.982Z,988.22
2023-01-09T05:58:25.655Z,988.38
2023-01-09T06:01:33.183Z,988.31
2023-01-09T06:04:40.672Z,988.26
2023-01-09T06:07:47.464Z,988.34
2023-01-09T06:10:55.101Z,988.32
2023-01-09T06:14:02.529Z,988.34
2023-01-09T06:17:09.428Z,988.32
2023-01-09T06:20:16.827Z,988.38
2023-01-09T06:23:24.095Z,988.52
2023-01-09T06:26:31.003Z,988.49
2023-01-09T06:29:38.472Z,988.58
2023-01-09T06:32:45.491Z,988.58
2023-01-09T06:35:52.395Z,988.63
2023-01-09T06:38:59.055Z,988.64
2023-01-09T06:42:06.317Z,988.71
2023-01-09T06:45:13.291Z,988.73
2023-01-09T06:48:20.278Z,988.75
2023-01-09T06:51:27.467Z,988.74
2023-01-09T06:54:34.932Z,988.79
2023-01-09T06:57:41.638Z,988.73
2023-01-09T07:00:49.204Z,988.76
2023-01-09T07:03:56.523Z,988.79
2023-01-09T07:07:03.094Z,988.84
2023-01-09T07:10:10.344Z,988.89
2023-01-09T07:13:17.742Z,988.97
2023-01-09T07:16:24.446Z,989.04
2023-01-09T07:19:32.093Z,989.19
2023-01-09T07:22:39.521Z,989.26
2023-01-09T07:25:46.153Z,989.23
2023-01-09T07:28:53.646Z,989.22
2023-01-09T07:32:00.656Z,989.27
2023-01-09T07:35:07.615Z,989.26
2023-01-09T07:38:15.010Z,989.43
2023-01-09T07:41:21.984Z,989.46
2023-01-09T07:44:29.061Z,989.55
2023-01-09T07:47:36.560Z,989.57
2023-01-09T07:50:43.555Z,989.62
2023-01-09T07:53:50.711Z,989.75
2023-01-09T07:56:58.125Z,989.83
2023-01-09T08:00:05.152Z,989.80
2023-01-09T08:03:12.443Z,989.87
2023-01-09T08:06:19.555Z,989.85
2023-01-09T08:09:26.795Z,989.84
2023-01-09T08:12:34.034Z,989.79
2023-01-09T08:15:41.188Z,989.85
2023-01-09T08:18:48.660Z,989.88
2023-01-09T08:21:55.713Z,989.91
2023-01-09T08:25:02.812Z,989.96
2023-01-09T08:28:10.408Z,990.03
2023-01-09T08:31:17.763Z,990.05
2023-01-09T08:34:24.718Z,990.15
2023-01-09T08:37:32.291Z,990.13
2023-01-09T08:40:39.098Z,990.25
2023-01-09T08:43:46.558Z,990.30
2023-01-09T08:46:54.012Z,990.32
2023-01-09T08:50:00.688Z,990.38
2023-01-09T08:53:08.186Z,990.43
2023-01-09T08:56:15.602Z,990.43
2023-01-09T08:59:22.449Z,990.44
2023-01-09T09:02:30.215Z,990.48
2023-01-09T09:05:37.317Z,990.50
2023-01-09T09:08:44.463Z,990.50
2023-01-09T09:11:51.898Z,990.56
2023-01-09T09:14:59.093Z,990.60
2023-01-09T09:18:06.107Z,990.59
2023-01-09T09:21:13.374Z,990.57
2023-01-09T09:24:20.539Z,990.66
2023-01-09T09:27:28.480Z,990.67
2023-01-09T09:30:35.261Z,990.74
2023-01-09T09:33:42.887Z,990.82
2023-01-09T09:36:50.072Z,990.96
2023-01-09T09:39:58.050Z,990.97
2023-01-09T09:43:06.759Z,990.98
2023-01-09T09:46:15.104Z,990.91
2023-01-09T09:49:21.939Z,990.97
2023-01-09T09:52:29.626Z,991.00
2023-01-09T09:55:36.443Z,991.15
2023-01-09T09:58:44.111Z,991.03
2023-01-09T10:01:51.192Z,991.05
2023-01-09T10:04:58.487Z,990.97
2023-01-09T10:08:15.403Z,990.93
2023-01-09T10:11:10.533Z,990.97
2023-01-09T10:14:24.258Z,990.97
2023-01-09T10:17:20.754Z,991.02
2023-01-09T10:20:27.572Z,990.89
2023-01-09T10:23:35.152Z,990.94
2023-01-09T10:26:42.383Z,990.90
2023-01-09T10:29:49.735Z,990.89
2023-01-09T10:32:56.838Z,990.91
2023-01-09T10:36:04.637Z,990.98
2023-01-09T10:39:11.466Z,990.97
2023-01-09T10:42:19.287Z,990.95
2023-01-09T10:45:26.229Z,991.02
2023-01-09T10:48:34.128Z,991.11
2023-01-09T10:51:41.475Z,991.02
2023-01-09T10:54:48.780Z,990.97
2023-01-09T10:57:55.891Z,990.96
2023-01-09T11:01:04.253Z,990.99
2023-01-09T11:04:11.125Z,990.94
2023-01-09T11:07:18.850Z,990.95
2023-01-09T11:10:26.526Z,991.00
2023-01-09T11:13:34.107Z,990.98
2023-01-09T11:16:41.476Z,990.95
2023-01-09T11:19:49.194Z,990.95
2023-01-09T11:22:56.597Z,990.96
2023-01-09T11:26:04.607Z,990.94
2023-01-09T11:29:11.393Z,990.93
2023-01-09T11:32:19.128Z,990.89
2023-01-09T11:35:26.033Z,991.03
2023-01-09T11:38:33.851Z,990.91
2023-01-09T11:41:41.085Z,990.92
2023-01-09T11:44:48.389Z,990.92
2023-01-09T11:47:55.815Z,990.96
2023-01-09T11:51:03.092Z,990.98
2023-01-09T11:54:10.372Z,991.01
2023-01-09T11:57:18.368Z,991.03
2023-01-09T12:00:25.192Z,991.04
2023-01-09T12:03:32.886Z,990.98
2023-01-09T12:06:40.085Z,991.05
2023-01-09T12:09:47.346Z,991.05
2023-01-09T12:12:54.641Z,991.03
2023-01-09T12:16:02.217Z,991.06
2023-01-09T12:19:09.447Z,991.04
2023-01-09T12:22:17.106Z,991.03
2023-01-09T12:25:24.067Z,991.02
2023-01-09T12:28:31.744Z,991.06
2023-01-09T12:31:39.024Z,991.03
2023-01-09T12:34:46.218Z,991.06
2023-01-09T12:37:53.771Z,991.08
2023-01-09T12:41:00.787Z,991.06
2023-01-09T12:44:08.614Z,991.15
2023-01-09T12:47:15.810Z,990.96
2023-01-09T12:50:22.960Z,991.11
2023-01-09T12:53:30.075Z,990.97
2023-01-09T12:56:37.405Z,990.93
2023-01-09T12:59:45.081Z,990.93
2023-01-09T13:03:03.651Z,990.95
2023-01-09T13:05:56.624Z,991.06
2023-01-09T13:09:03.797Z,991.10
2023-01-09T13:12:11.209Z,991.05
2023-01-09T13:15:18.190Z,991.01
2023-01-09T13:18:25.999Z,991.04
2023-01-09T13:21:32.800Z,991.00
2023-01-09T13:24:40.731Z,990.87
2023-01-09T13:27:47.892Z,990.84
2023-01-09T13:30:56.437Z,990.82
2023-01-09T13:34:08.718Z,990.86
2023-01-09T13:37:07.874Z,990.83
2023-01-09T13:40:15.034Z,990.81
2023-01-09T13:43:22.747Z,990.84
2023-01-09T13:46:29.555Z,990.81
2023-01-09T13:49:37.423Z,990.84
2023-01-09T13:52:44.841Z,990.86
2023-01-09T13:55:55.105Z,990.78
2023-01-09T13:59:02.207Z,990.87
2023-01-09T14:02:09.707Z,990.86
2023-01-09T14:05:16.942Z,990.82
2023-01-09T14:08:24.748Z,990.90
2023-01-09T14:11:31.472Z,991.02
2023-01-09T14:14:39.190Z,991.12
2023-01-09T14:17:46.373Z,991.18
2023-01-09T14:20:53.601Z,991.32
2023-01-09T14:24:04.505Z,991.28
2023-01-09T14:27:02.762Z,991.36
2023-01-09T14:30:09.934Z,991.45
2023-01-09T14:33:17.585Z,991.45
2023-01-09T14:36:24.506Z,991.50
2023-01-09T14:39:32.084Z,991.63
2023-01-09T14:42:39.247Z,991.66
2023-01-09T14:45:48.006Z,991.67
2023-01-09T14:48:56.377Z,991.72
2023-01-09T14:52:03.698Z,991.75
2023-01-09T14:55:11.166Z,991.77
2023-01-09T14:58:19.132Z,991.88
2023-01-09T15:01:25.948Z,991.95
2023-01-09T15:04:33.752Z,991.97
2023-01-09T15:07:40.625Z,992.04
2023-01-09T15:10:48.389Z,992.16
2023-01-09T15:13:55.712Z,992.19
2023-01-09T15:17:03.290Z,992.27
2023-01-09T15:20:10.991Z,992.33
2023-01-09T15:23:18.564Z,992.29
2023-01-09T15:26:25.639Z,992.33
2023-01-09T15:29:33.281Z,992.39
2023-01-09T15:32:40.197Z,992.41
2023-01-09T15:35:47.853Z,992.53
2023-01-09T15:38:55.157Z,992.50
2023-01-09T15:42:02.399Z,992.60
2023-01-09T15:45:09.537Z,992.68
2023-01-09T15:48:16.589Z,992.53
2023-01-09T15:51:23.629Z,992.61
2023-01-09T15:54:31.506Z,992.73
2023-01-09T15:57:38.149Z,992.78
2023-01-09T16:00:45.644Z,992.82
2023-01-09T16:03:52.680Z,992.90
2023-01-09T16:06:59.944Z,993.04
2023-01-09T16:10:07.124Z,993.31
2023-01-09T16:13:15.412Z,993.19
2023-01-09T16:16:22.680Z,993.14
2023-01-09T16:19:30.069Z,993.29
2023-01-09T16:22:36.976Z,993.36
2023-01-09T16:25:44.222Z,993.33
2023-01-09T16:28:51.046Z,993.33
2023-01-09T16:31:58.794Z,993.41
2023-01-09T16:35:06.387Z,993.40
2023-01-09T16:38:13.711Z,993.43
2023-01-09T16:41:20.759Z,993.37
2023-01-09T16:44:28.415Z,993.51
2023-01-09T16:47:35.093Z,993.52
2023-01-09T16:50:42.969Z,993.60
2023-01-09T16:53:49.704Z,993.70
2023-01-09T16:56:57.064Z,993.70
2023-01-09T17:00:04.220Z,993.78
2023-01-09T17:03:11.634Z,993.84
2023-01-09T17:06:18.836Z,993.90
2023-01-09T17:09:27.514Z,993.85
2023-01-09T17:12:34.544Z,993.95
2023-01-09T17:15:42.120Z,993.84
2023-01-09T17:18:49.271Z,994.01
2023-01-09T17:21:56.380Z,994.07
2023-01-09T17:25:03.762Z,994.08
2023-01-09T17:28:10.656Z,994.17
2023-01-09T17:31:18.451Z,994.21
2023-01-09T17:34:26.698Z,994.26
2023-01-09T17:37:35.321Z,994.20
2023-01-09T17:40:42.695Z,994.24
2023-01-09T17:43:50.012Z,994.34
2023-01-09T17:46:56.843Z,994.44
2023-01-09T17:50:04.100Z,994.48
2023-01-09T17:53:11.701Z,994.59
2023-01-09T17:56:18.588Z,994.66
2023-01-09T17:59:27.579Z,994.60
2023-01-09T18:02:34.895Z,994.67
2023-01-09T18:05:42.174Z,994.73
2023-01-09T18:08:49.773Z,994.72
2023-01-09T18:11:57.036Z,994.75
2023-01-09T18:15:04.273Z,994.83
2023-01-09T18:18:11.695Z,994.83
2023-01-09T18:21:18.820Z,994.89
2023-01-09T18:24:26.033Z,994.93
2023-01-09T18:27:33.260Z,995.04
2023-01-09T18:30:40.344Z,995.04
2023-01-09T18:33:47.485Z,995.10
2023-01-09T18:36:54.816Z,995.23
2023-01-09T18:40:02.059Z,995.26
2023-01-09T18:43:09.357Z,995.44
2023-01-09T18:46:17.145Z,995.52
2023-01-09T18:49:24.308Z,995.64
2023-01-09T18:52:31.741Z,995.64
2023-01-09T18:55:39.429Z,995.81
2023-01-09T18:58:46.658Z,995.83
2023-01-09T19:01:54.181Z,995.90
2023-01-09T19:05:01.967Z,995.86
2023-01-09T19:08:08.961Z,995.87
2023-01-09T19:11:16.364Z,995.94
2023-01-09T19:14:23.842Z,995.91
2023-01-09T19:17:31.057Z,995.97
2023-01-09T19:20:38.108Z,996.02
2023-01-09T19:23:45.709Z,996.15
2023-01-09T19:26:52.417Z,996.12
2023-01-09T19:29:59.992Z,996.12
2023-01-09T19:33:07.108Z,996.30
2023-01-09T19:36:13.919Z,996.28
2023-01-09T19:39:21.435Z,996.29
2023-01-09T19:42:28.596Z,996.45
2023-01-09T19:45:35.476Z,996.48
2023-01-09T19:48:43.046Z,996.55
2023-01-09T19:51:50.231Z,996.59
2023-01-09T19:54:57.591Z,996.66
2023-01-09T19:58:04.759Z,996.69
2023-01-09T20:01:11.566Z,996.70
2023-01-09T20:04:19.218Z,996.86
2023-01-09T20:07:26.976Z,996.85
2023-01-09T20:10:33.903Z,996.90
2023-01-09T20:13:41.547Z,996.90
2023-01-09T20:16:49.019Z,997.00
2023-01-09T20:19:56.136Z,997.07
2023-01-09T20:23:03.329Z,997.14
2023-01-09T20:26:10.403Z,997.17
2023-01-09T20:29:17.562Z,997.16
2023-01-09T20:32:25.088Z,997.33
2023-01-09T20:35:34.125Z,997.31
2023-01-09T20:38:41.310Z,997.32
2023-01-09T20:41:48.385Z,997.38
2023-01-09T20:44:55.369Z,997.46
2023-01-09T20:48:03.058Z,997.43
2023-01-09T20:51:09.784Z,997.52
2023-01-09T20:54:17.360Z,997.66
2023-01-09T20:57:24.442Z,997.71
2023-01-09T21:00:31.630Z,997.75
2023-01-09T21:03:38.962Z,997.79
2023-01-09T21:06:47.668Z,997.89
2023-01-09T21:09:46.014Z,997.83
2023-01-09T21:12:53.339Z,997.94
2023-01-09T21:16:00.158Z,997.97
2023-01-09T21:19:07.408Z,998.00
2023-01-09T21:22:14.729Z,998.06
2023-01-09T21:25:21.437Z,998.11
2023-01-09T21:28:28.815Z,998.21
2023-01-09T21:31:36.109Z,998.23
2023-01-09T21:34:42.669Z,998.27
2023-01-09T21:37:49.980Z,998.39
2023-01-09T21:40:57.023Z,998.33
2023-01-09T21:44:04.051Z,998.37
2023-01-09T21:47:11.483Z,998.39
2023-01-09T21:50:18.588Z,998.52
2023-01-09T21:53:25.429Z,998.56
2023-01-09T21:56:32.634Z,998.63
2023-01-09T21:59:40.161Z,998.70
2023-01-09T22:02:47.245Z,998.74
2023-01-09T22:05:54.432Z,998.82
2023-01-09T22:09:01.763Z,998.91
2023-01-09T22:12:08.818Z,998.87
2023-01-09T22:15:15.559Z,998.89
2023-01-09T22:18:23.073Z,998.97
2023-01-09T22:21:29.871Z,999.09
2023-01-09T22:24:36.644Z,999.19
2023-01-09T22:27:44.200Z,999.14
2023-01-09T22:30:50.987Z,999.21
2023-01-09T22:33:58.486Z,999.35
2023-01-09T22:37:06.058Z,999.46
2023-01-09T22:40:12.827Z,999.47
2023-01-09T22:43:20.053Z,999.60
2023-01-09T22:46:27.078Z,999.64
2023-01-09T22:49:51.872Z,999.63
2023-01-09T22:52:38.800Z,999.68
2023-01-09T22:55:46.078Z,999.83
2023-01-09T22:58:55.931Z,999.86
2023-01-09T23:02:02.821Z,999.99
2023-01-09T23:05:10.144Z,1000.02
2023-01-09T23:08:17.455Z,1000.10
2023-01-09T23:11:24.684Z,1000.11
2023-01-09T23:14:32.047Z,1000.12
2023-01-09T23:17:39.233Z,1000.26
2023-01-09T23:20:46.316Z,1000.28
2023-01-09T23:23:54.067Z,1000.30
2023-01-09T23:27:00.783Z,1000.32
2023-01-09T23:30:08.066Z,1000.32
2023-01-09T23:33:15.378Z,1000.34
2023-01-09T23:36:22.122Z,1000.35
2023-01-09T23:39:29.491Z,1000.42
2023-01-09T23:42:36.542Z,1000.55
2023-01-09T23:45:43.290Z,1000.70
2023-01-09T23:48:50.411Z,1000.74
2023-01-09T23:51:57.368Z,1000.77
2023-01-09T23:55:04.613Z,1000.79
2023-01-09T23:58:11.939Z,1000.79
